createdAt,value
2018-03-29T00:00:01.510Z,26.80
2018-03-29T00:02:30.209Z,27.30
2018-03-29T00:04:58.896Z,26.57
2018-03-29T00:07:27.871Z,24.07
2018-03-29T00:09:56.575Z,23.63
2018-03-29T00:12:25.262Z,24.63
2018-03-29T00:14:53.948Z,23.77
2018-03-29T00:17:22.590Z,23.17
2018-03-29T00:19:51.317Z,27.00
2018-03-29T00:22:20.250Z,24.70
2018-03-29T00:24:49.709Z,25.20
2018-03-29T00:27:18.361Z,22.83
2018-03-29T00:29:47.353Z,25.90
2018-03-29T00:32:16.074Z,50.93
2018-03-29T00:34:44.714Z,59.20
2018-03-29T00:37:13.804Z,103.57
2018-03-29T00:39:43.262Z,133.17
2018-03-29T00:42:11.848Z,104.53
2018-03-29T00:44:40.941Z,138.43
2018-03-29T00:47:09.633Z,105.57
2018-03-29T00:49:38.272Z,36.23
2018-03-29T00:52:07.365Z,42.10
2018-03-29T00:54:36.090Z,40.07
2018-03-29T00:57:04.775Z,52.83
2018-03-29T00:59:33.566Z,43.93
2018-03-29T01:02:02.109Z,51.33
2018-03-29T01:04:30.779Z,37.57
2018-03-29T01:07:00.244Z,39.87
2018-03-29T01:09:28.911Z,44.80
2018-03-29T01:11:57.466Z,39.93
2018-03-29T01:14:26.400Z,43.27
2018-03-29T01:16:55.043Z,45.57
2018-03-29T01:19:23.772Z,45.07
2018-03-29T01:21:52.704Z,40.40
2018-03-29T01:24:22.163Z,40.37
2018-03-29T01:26:50.815Z,44.17
2018-03-29T01:29:19.536Z,42.03
2018-03-29T01:31:48.221Z,39.27
2018-03-29T01:34:16.907Z,37.23
2018-03-29T01:36:45.702Z,39.30
2018-03-29T01:39:14.278Z,44.63
2018-03-29T01:41:42.815Z,39.97
2018-03-29T01:44:12.311Z,40.90
2018-03-29T01:46:41.774Z,39.97
2018-03-29T01:49:10.316Z,43.07
2018-03-29T01:51:39.244Z,42.33
2018-03-29T01:54:07.886Z,55.77
2018-03-29T01:56:36.616Z,40.20
2018-03-29T01:59:05.597Z,48.10
2018-03-29T02:01:34.294Z,37.37
2018-03-29T02:04:02.980Z,43.97
2018-03-29T02:06:31.825Z,40.97
2018-03-29T02:09:01.176Z,38.40
2018-03-29T02:11:29.812Z,41.83
2018-03-29T02:13:58.855Z,39.07
2018-03-29T02:16:27.499Z,47.87
2018-03-29T02:18:56.227Z,141.20
2018-03-29T02:21:24.958Z,124.90
2018-03-29T02:23:54.420Z,134.27
2018-03-29T02:26:23.040Z,131.13
2018-03-29T02:28:52.510Z,130.20
2018-03-29T02:31:21.191Z,111.40
2018-03-29T02:33:49.877Z,114.30
2018-03-29T02:36:18.661Z,112.00
2018-03-29T02:38:47.248Z,97.20
2018-03-29T02:41:15.952Z,105.80
2018-03-29T02:43:44.668Z,97.20
2018-03-29T02:46:14.128Z,107.10
2018-03-29T02:48:42.752Z,119.77
2018-03-29T02:51:12.414Z,93.50
2018-03-29T02:53:41.107Z,88.53
2018-03-29T02:56:09.755Z,70.63
2018-03-29T02:58:38.678Z,46.43
2018-03-29T03:01:07.265Z,49.27
2018-03-29T03:03:35.851Z,52.50
2018-03-29T03:06:04.536Z,56.70
2018-03-29T03:08:33.223Z,52.50
2018-03-29T03:11:01.861Z,52.57
2018-03-29T03:13:31.557Z,80.37
2018-03-29T03:16:01.014Z,74.67
2018-03-29T03:18:29.700Z,58.70
2018-03-29T03:20:58.593Z,59.33
2018-03-29T03:23:27.281Z,54.40
2018-03-29T03:25:55.856Z,83.43
2018-03-29T03:28:25.017Z,67.10
2018-03-29T03:30:53.645Z,89.50
2018-03-29T03:33:22.233Z,73.23
2018-03-29T03:35:51.017Z,41.13
2018-03-29T03:38:19.703Z,73.03
2018-03-29T03:40:48.280Z,61.73
2018-03-29T03:43:17.069Z,83.57
2018-03-29T03:45:45.760Z,73.60
2018-03-29T03:48:14.406Z,51.00
2018-03-29T03:50:43.132Z,38.30
2018-03-29T03:53:11.818Z,88.83
2018-03-29T03:55:40.504Z,86.43
2018-03-29T03:58:09.477Z,95.83
2018-03-29T04:00:38.182Z,108.77
2018-03-29T04:03:06.770Z,232.83
2018-03-29T04:05:35.653Z,175.13
2018-03-29T04:08:04.339Z,50.20
2018-03-29T04:10:33.025Z,169.23
2018-03-29T04:21:12.228Z,238.33
2018-03-29T04:23:40.780Z,102.10
2018-03-29T04:26:09.392Z,108.07
2018-03-29T04:28:38.092Z,66.77
2018-03-29T04:31:11.564Z,114.07
2018-03-29T04:33:40.528Z,74.93
2018-03-29T04:36:09.080Z,63.20
2018-03-29T04:38:38.559Z,79.13
2018-03-29T04:41:07.750Z,102.37
2018-03-29T04:43:36.400Z,50.50
2018-03-29T04:46:05.122Z,77.40
2018-03-29T04:48:33.856Z,114.43
2018-03-29T04:51:03.316Z,107.93
2018-03-29T04:56:43.696Z,72.30
2018-03-29T04:59:12.382Z,68.83
2018-03-29T05:01:41.055Z,67.37
2018-03-29T05:04:09.754Z,115.87
2018-03-29T05:06:38.439Z,110.23
2018-03-29T05:09:07.164Z,66.93
2018-03-29T05:11:36.677Z,94.33
2018-03-29T05:14:06.131Z,117.23
2018-03-29T05:16:34.789Z,116.13
2018-03-29T05:19:03.810Z,106.43
2018-03-29T05:21:32.498Z,112.83
2018-03-29T05:24:01.192Z,150.90
2018-03-29T05:26:35.397Z,196.97
2018-03-29T05:29:04.086Z,222.20
2018-03-29T05:31:32.768Z,237.10
2018-03-29T05:34:01.564Z,183.33
2018-03-29T05:36:30.202Z,176.43
2018-03-29T05:38:58.936Z,228.40
2018-03-29T05:41:27.820Z,211.50
2018-03-29T05:43:56.512Z,252.47
2018-03-29T05:46:25.192Z,241.13
2018-03-29T05:48:53.891Z,193.53
2018-03-29T05:51:22.460Z,229.07
2018-03-29T05:53:51.012Z,312.67
2018-03-29T05:56:19.897Z,287.83
2018-03-29T05:58:48.632Z,262.60
2018-03-29T06:01:17.822Z,314.60
2018-03-29T06:03:46.451Z,314.60
2018-03-29T06:06:15.907Z,145.93
2018-03-29T06:08:44.635Z,179.90
2018-03-29T06:11:14.055Z,109.53
2018-03-29T06:13:43.545Z,252.33
2018-03-29T06:16:21.404Z,88.53
2018-03-29T06:18:50.034Z,108.30
2018-03-29T06:21:19.447Z,77.90
2018-03-29T06:23:48.900Z,78.73
2018-03-29T06:26:17.584Z,119.70
2018-03-29T06:28:46.270Z,123.97
2018-03-29T06:31:15.222Z,142.27
2018-03-29T06:33:43.948Z,134.80
2018-03-29T06:36:12.529Z,131.87
2018-03-29T06:38:41.452Z,116.60
2018-03-29T06:41:10.165Z,97.50
2018-03-29T06:43:39.614Z,99.90
2018-03-29T06:46:08.402Z,69.47
2018-03-29T06:48:37.083Z,68.13
2018-03-29T06:51:05.670Z,63.23
2018-03-29T06:53:34.357Z,51.00
2018-03-29T06:56:03.043Z,50.90
2018-03-29T06:58:31.674Z,47.57
2018-03-29T07:01:01.499Z,43.47
2018-03-29T07:03:30.944Z,42.20
2018-03-29T07:05:59.631Z,51.40
2018-03-29T07:08:28.568Z,43.70
2018-03-29T07:10:57.984Z,39.83
2018-03-29T07:13:26.714Z,41.77
2018-03-29T07:15:55.588Z,35.60
2018-03-29T07:18:24.288Z,35.27
2018-03-29T07:20:52.930Z,31.67
2018-03-29T07:23:22.024Z,30.60
2018-03-29T07:25:50.730Z,33.70
2018-03-29T07:28:19.416Z,30.43
2018-03-29T07:30:48.000Z,31.33
2018-03-29T07:33:16.680Z,29.63
2018-03-29T07:35:45.313Z,35.03
2018-03-29T07:38:14.971Z,30.00
2018-03-29T07:40:43.601Z,31.83
2018-03-29T07:43:13.070Z,33.63
2018-03-29T07:45:42.635Z,37.47
2018-03-29T07:48:11.276Z,30.33
2018-03-29T07:50:40.728Z,27.73
2018-03-29T07:53:09.792Z,28.70
2018-03-29T07:55:38.408Z,26.50
2018-03-29T07:58:06.994Z,25.43
2018-03-29T08:00:35.719Z,28.63
2018-03-29T08:03:05.183Z,32.80
2018-03-29T08:05:33.832Z,23.53
2018-03-29T08:08:02.594Z,29.73
2018-03-29T08:10:32.058Z,28.40
2018-03-29T08:13:01.508Z,26.13
2018-03-29T08:15:31.251Z,31.43
2018-03-29T08:17:59.958Z,27.33
2018-03-29T08:20:28.645Z,29.20
2018-03-29T08:22:58.152Z,34.17
2018-03-29T08:25:26.771Z,25.40
2018-03-29T08:27:56.239Z,26.87
2018-03-29T08:30:24.987Z,23.27
2018-03-29T08:32:53.708Z,27.70
2018-03-29T08:35:22.743Z,29.97
2018-03-29T08:37:52.308Z,26.77
2018-03-29T08:40:20.994Z,24.27
2018-03-29T08:42:49.635Z,25.00
2018-03-29T08:45:18.440Z,24.93
2018-03-29T08:47:47.162Z,25.30
2018-03-29T08:50:15.708Z,27.40
2018-03-29T08:52:44.373Z,26.70
2018-03-29T08:55:13.890Z,20.00
2018-03-29T08:57:42.618Z,23.97
2018-03-29T09:00:11.612Z,18.73
2018-03-29T09:02:40.297Z,19.90
2018-03-29T09:05:08.962Z,21.10
2018-03-29T09:07:38.056Z,19.47
2018-03-29T09:10:06.763Z,20.90
2018-03-29T09:12:35.391Z,19.80
2018-03-29T09:15:05.053Z,16.83
2018-03-29T09:17:33.596Z,21.17
2018-03-29T09:20:02.327Z,19.17
2018-03-29T09:22:31.120Z,14.83
2018-03-29T09:24:59.757Z,17.07
2018-03-29T09:27:28.483Z,15.90
2018-03-29T09:29:57.278Z,16.97
2018-03-29T09:32:25.964Z,12.43
2018-03-29T09:34:54.602Z,16.60
2018-03-29T09:37:23.338Z,20.60
2018-03-29T09:39:52.023Z,18.17
2018-03-29T09:42:20.708Z,13.43
2018-03-29T09:44:49.552Z,12.40
2018-03-29T09:47:18.100Z,12.90
2018-03-29T09:49:48.301Z,17.40
2018-03-29T09:52:17.091Z,16.70
2018-03-29T09:54:45.749Z,14.60
2018-03-29T09:57:14.458Z,15.50
2018-03-29T09:59:43.385Z,15.20
2018-03-29T10:02:18.379Z,14.83
2018-03-29T10:04:52.595Z,20.43
2018-03-29T10:07:25.088Z,13.40
2018-03-29T10:09:53.961Z,16.80
2018-03-29T10:12:22.658Z,28.17
2018-03-29T10:14:51.331Z,14.33
2018-03-29T10:17:20.984Z,12.63
2018-03-29T10:19:50.353Z,20.10
2018-03-29T10:22:18.895Z,12.70
2018-03-29T10:24:47.918Z,13.00
2018-03-29T10:27:16.603Z,12.23
2018-03-29T10:29:45.251Z,12.13
2018-03-29T10:32:13.976Z,21.93
2018-03-29T10:34:42.662Z,12.67
2018-03-29T10:37:11.305Z,13.23
2018-03-29T10:39:40.242Z,12.60
2018-03-29T10:42:08.891Z,21.77
2018-03-29T10:44:37.614Z,14.10
2018-03-29T10:47:06.577Z,31.93
2018-03-29T10:49:35.292Z,10.57
2018-03-29T10:52:03.984Z,13.77
2018-03-29T10:54:32.758Z,11.53
2018-03-29T10:57:01.449Z,17.40
2018-03-29T10:59:30.092Z,12.43
2018-03-29T11:01:59.094Z,11.27
2018-03-29T11:07:07.063Z,11.47
2018-03-29T11:09:35.744Z,8.70
2018-03-29T11:12:04.512Z,11.50
2018-03-29T11:14:33.486Z,10.17
2018-03-29T11:17:03.224Z,21.13
2018-03-29T11:19:31.909Z,11.53
2018-03-29T11:22:01.112Z,7.10
2018-03-29T11:24:29.797Z,6.37
2018-03-29T11:26:58.421Z,5.97
2018-03-29T11:29:27.513Z,13.03
2018-03-29T11:31:56.229Z,10.03
2018-03-29T11:34:24.814Z,10.80
2018-03-29T11:36:53.544Z,14.60
2018-03-29T11:39:22.999Z,11.40
2018-03-29T11:41:51.630Z,6.40
2018-03-29T11:44:21.195Z,4.37
2018-03-29T11:46:49.879Z,6.10
2018-03-29T11:49:18.564Z,7.60
2018-03-29T11:51:47.657Z,7.67
2018-03-29T11:54:16.342Z,5.77
2018-03-29T11:56:44.989Z,5.83
2018-03-29T11:59:13.714Z,9.30
2018-03-29T12:01:42.265Z,61.73
2018-03-29T12:04:10.986Z,5.47
2018-03-29T12:06:39.672Z,7.47
2018-03-29T12:09:08.457Z,12.83
2018-03-29T12:11:37.123Z,9.30
2018-03-29T12:14:06.116Z,5.73
2018-03-29T12:16:34.822Z,7.03
2018-03-29T12:19:03.454Z,6.87
2018-03-29T12:21:33.017Z,5.80
2018-03-29T12:24:02.482Z,23.07
2018-03-29T12:26:31.132Z,18.57
2018-03-29T12:29:00.061Z,7.03
2018-03-29T12:31:29.532Z,12.83
2018-03-29T12:33:58.108Z,12.80
2018-03-29T12:36:26.851Z,24.40
2018-03-29T12:38:56.472Z,8.23
2018-03-29T12:41:25.163Z,9.17
2018-03-29T12:43:54.048Z,6.93
2018-03-29T12:46:23.824Z,10.60
2018-03-29T12:48:52.471Z,6.83
2018-03-29T12:51:21.386Z,11.90
2018-03-29T12:53:49.949Z,13.60
2018-03-29T12:59:18.421Z,99.67
2018-03-29T13:01:47.145Z,6.53
2018-03-29T13:04:15.833Z,9.00
2018-03-29T13:06:44.551Z,21.53
2018-03-29T13:09:13.294Z,8.23
2018-03-29T13:11:41.902Z,10.77
2018-03-29T13:14:11.333Z,9.93
2018-03-29T13:16:40.132Z,10.33
2018-03-29T13:19:08.816Z,9.23
2018-03-29T13:21:37.459Z,14.97
2018-03-29T13:24:06.199Z,6.97
2018-03-29T13:26:34.982Z,7.87
2018-03-29T13:29:04.442Z,8.37
2018-03-29T13:31:33.908Z,7.00
2018-03-29T13:34:02.605Z,32.03
2018-03-29T13:36:31.291Z,6.93
2018-03-29T13:38:59.967Z,8.47
2018-03-29T13:41:28.661Z,8.17
2018-03-29T13:43:57.346Z,35.97
2018-03-29T13:46:26.193Z,9.60
2018-03-29T13:48:54.816Z,14.17
2018-03-29T13:51:23.303Z,42.37
2018-03-29T13:53:51.863Z,9.17
2018-03-29T13:56:20.568Z,7.70
2018-03-29T13:58:49.257Z,13.10
2018-03-29T14:01:17.938Z,11.40
2018-03-29T14:03:46.735Z,21.37
2018-03-29T14:06:15.407Z,7.97
2018-03-29T14:08:44.382Z,12.00
2018-03-29T14:11:12.975Z,12.03
2018-03-29T14:13:41.675Z,8.27
2018-03-29T14:16:10.459Z,9.40
2018-03-29T14:18:39.152Z,29.60
2018-03-29T14:21:07.798Z,7.90
2018-03-29T14:23:39.586Z,9.43
2018-03-29T14:26:16.671Z,6.60
2018-03-29T14:28:48.327Z,6.40
2018-03-29T14:31:17.013Z,9.33
2018-03-29T14:33:45.663Z,6.30
2018-03-29T14:36:14.428Z,7.53
2018-03-29T14:38:43.180Z,6.17
2018-03-29T14:41:11.814Z,8.20
2018-03-29T14:43:40.735Z,8.47
2018-03-29T14:46:09.436Z,14.87
2018-03-29T14:48:38.123Z,7.90
2018-03-29T14:51:07.009Z,26.83
2018-03-29T14:53:35.718Z,6.63
2018-03-29T14:56:04.305Z,6.10
2018-03-29T14:58:33.094Z,8.50
2018-03-29T15:01:01.795Z,7.83
2018-03-29T15:03:32.920Z,6.47
2018-03-29T15:06:01.611Z,12.43
2018-03-29T15:08:32.790Z,5.73
2018-03-29T15:11:02.167Z,6.37
2018-03-29T15:13:31.604Z,7.23
2018-03-29T15:16:01.165Z,18.33
2018-03-29T15:18:29.814Z,8.83
2018-03-29T15:20:58.536Z,8.70
2018-03-29T15:23:27.420Z,11.87
2018-03-29T15:25:56.116Z,7.80
2018-03-29T15:28:24.734Z,10.97
2018-03-29T15:31:00.137Z,8.70
2018-03-29T15:33:28.823Z,13.47
2018-03-29T15:35:57.371Z,13.90
2018-03-29T15:38:26.101Z,7.67
2018-03-29T15:40:54.646Z,14.00
2018-03-29T15:43:23.318Z,10.53
2018-03-29T15:46:20.893Z,12.07
2018-03-29T15:48:49.620Z,18.17
2018-03-29T15:51:18.313Z,8.63
2018-03-29T15:53:46.947Z,7.07
2018-03-29T15:56:15.513Z,8.33
2018-03-29T15:58:44.822Z,12.27
2018-03-29T16:01:14.481Z,12.23
2018-03-29T16:03:43.042Z,38.57
2018-03-29T16:06:11.599Z,26.37
2018-03-29T16:08:41.355Z,26.97
2018-03-29T16:11:09.996Z,55.60
2018-03-29T16:13:39.304Z,11.97
2018-03-29T16:16:08.178Z,8.20
2018-03-29T16:18:37.522Z,7.33
2018-03-29T16:21:06.112Z,6.57
2018-03-29T16:23:36.242Z,11.47
2018-03-29T16:26:04.929Z,6.53
2018-03-29T16:28:33.490Z,8.70
2018-03-29T16:31:05.217Z,7.53
2018-03-29T16:33:34.149Z,8.67
2018-03-29T16:36:10.923Z,10.10
2018-03-29T16:38:39.565Z,31.93
2018-03-29T16:41:09.017Z,15.30
2018-03-29T16:43:37.802Z,11.13
2018-03-29T16:46:07.223Z,9.60
2018-03-29T16:48:37.500Z,15.10
2018-03-29T16:51:06.280Z,20.60
2018-03-29T16:53:34.982Z,21.83
2018-03-29T16:56:03.557Z,16.30
2018-03-29T16:58:32.354Z,16.83
2018-03-29T17:01:01.003Z,12.87
2018-03-29T17:03:29.728Z,13.97
2018-03-29T17:05:58.914Z,23.93
2018-03-29T17:08:27.559Z,14.43
2018-03-29T17:10:56.287Z,20.63
2018-03-29T17:13:24.997Z,13.47
2018-03-29T17:15:56.670Z,15.60
2018-03-29T17:18:25.447Z,11.33
2018-03-29T17:20:54.229Z,17.47
2018-03-29T17:23:22.817Z,33.90
2018-03-29T17:25:51.586Z,30.40
2018-03-29T17:28:20.287Z,28.33
2018-03-29T17:30:48.866Z,42.47
2018-03-29T17:33:17.816Z,33.53
2018-03-29T17:35:46.552Z,28.80
2018-03-29T17:38:15.101Z,22.57
2018-03-29T17:40:43.735Z,19.93
2018-03-29T17:43:12.400Z,26.10
2018-03-29T17:45:51.224Z,39.77
2018-03-29T17:48:26.455Z,37.63
2018-03-29T17:50:57.714Z,19.70
2018-03-29T17:53:26.498Z,18.07
2018-03-29T17:55:55.049Z,10.17
2018-03-29T17:58:24.594Z,10.07
2018-03-29T18:00:53.295Z,12.17
2018-03-29T18:03:21.981Z,16.87
2018-03-29T18:05:50.775Z,12.03
2018-03-29T18:08:19.414Z,12.03
2018-03-29T18:10:48.146Z,13.37
2018-03-29T18:13:17.030Z,14.40
2018-03-29T18:15:46.345Z,16.10
2018-03-29T18:18:14.905Z,16.93
2018-03-29T18:20:43.944Z,14.70
2018-03-29T18:23:12.810Z,14.60
2018-03-29T18:25:41.357Z,14.07
2018-03-29T18:28:10.164Z,15.37
2018-03-29T18:30:39.730Z,12.43
2018-03-29T18:33:08.292Z,15.10
2018-03-29T18:35:37.667Z,11.43
2018-03-29T18:38:06.349Z,12.30
2018-03-29T18:40:35.034Z,9.57
2018-03-29T18:43:03.867Z,23.23
2018-03-29T18:45:32.562Z,13.47
2018-03-29T18:48:01.978Z,11.97
2018-03-29T18:50:30.745Z,19.83
2018-03-29T18:53:00.061Z,26.23
2018-03-29T18:55:28.607Z,43.37
2018-03-29T18:57:58.345Z,79.93
2018-03-29T19:00:26.970Z,78.13
2018-03-29T19:02:55.653Z,73.17
2018-03-29T19:05:24.425Z,47.80
2018-03-29T19:07:52.970Z,43.03
2018-03-29T19:10:21.677Z,33.37
2018-03-29T19:12:51.252Z,33.87
2018-03-29T19:15:21.671Z,27.23
2018-03-29T19:17:50.575Z,40.87
2018-03-29T19:20:19.134Z,38.80
2018-03-29T19:22:47.888Z,49.47
2018-03-29T19:25:16.798Z,58.33
2018-03-29T19:27:45.366Z,49.10
2018-03-29T19:30:13.941Z,141.17
2018-03-29T19:32:43.669Z,103.33
2018-03-29T19:35:12.231Z,63.73
2018-03-29T19:37:41.357Z,61.60
2018-03-29T19:40:10.770Z,69.23
2018-03-29T19:42:39.337Z,115.70
2018-03-29T19:45:08.648Z,89.20
2018-03-29T19:47:37.336Z,77.73
2018-03-29T19:50:05.888Z,43.77
2018-03-29T19:52:35.204Z,50.77
2018-03-29T19:55:03.930Z,43.20
2018-03-29T19:57:32.473Z,70.50
2018-03-29T20:00:01.034Z,37.50
2018-03-29T20:02:30.445Z,344.67
2018-03-29T20:04:59.023Z,48.37
2018-03-29T20:07:27.608Z,28.73
2018-03-29T20:09:57.114Z,24.67
2018-03-29T20:12:26.430Z,49.70
2018-03-29T20:14:54.977Z,117.70
2018-03-29T20:17:24.552Z,55.10
2018-03-29T20:19:53.246Z,79.87
2018-03-29T20:22:22.029Z,33.27
2018-03-29T20:24:51.120Z,42.33
2018-03-29T20:27:19.777Z,75.43
2018-03-29T20:29:48.492Z,27.57
2018-03-29T20:32:17.793Z,17.53
2018-03-29T20:34:46.478Z,19.30
2018-03-29T20:37:15.171Z,20.70
2018-03-29T20:39:43.852Z,19.67
2018-03-29T20:42:12.581Z,57.63
2018-03-29T20:44:42.045Z,98.47
2018-03-29T20:47:10.822Z,87.77
2018-03-29T20:49:39.514Z,76.80
2018-03-29T20:52:08.159Z,46.20
2018-03-29T20:54:37.149Z,22.20
2018-03-29T20:57:05.878Z,30.30
2018-03-29T20:59:34.536Z,32.47
2018-03-29T21:02:03.352Z,31.50
2018-03-29T21:04:32.097Z,31.93
2018-03-29T21:07:00.732Z,37.07
2018-03-29T21:09:29.516Z,64.87
2018-03-29T21:11:58.202Z,45.63
2018-03-29T21:14:26.890Z,28.73
2018-03-29T21:16:56.594Z,32.77
2018-03-29T21:19:25.280Z,32.67
2018-03-29T21:21:53.923Z,23.77
2018-03-29T21:24:22.651Z,29.13
2018-03-29T21:26:51.338Z,18.20
2018-03-29T21:29:20.026Z,17.00
2018-03-29T21:31:49.225Z,18.50
2018-03-29T21:34:17.983Z,51.83
2018-03-29T21:36:47.309Z,19.83
2018-03-29T21:39:16.257Z,25.70
2018-03-29T21:41:45.096Z,31.93
2018-03-29T21:44:13.731Z,38.50
2018-03-29T21:46:43.452Z,49.90
2018-03-29T21:49:12.178Z,53.07
2018-03-29T21:51:40.988Z,29.70
2018-03-29T21:54:10.730Z,55.33
2018-03-29T21:56:39.461Z,31.57
2018-03-29T21:59:08.036Z,36.33
2018-03-29T22:01:36.931Z,127.43
2018-03-29T22:04:05.518Z,27.03
2018-03-29T22:06:34.205Z,18.07
2018-03-29T22:09:02.949Z,19.17
2018-03-29T22:11:31.674Z,16.67
2018-03-29T22:14:00.261Z,14.97
2018-03-29T22:16:29.040Z,39.97
2018-03-29T22:18:57.687Z,28.80
2018-03-29T22:21:26.416Z,26.47
2018-03-29T22:23:55.105Z,29.27
2018-03-29T22:26:23.901Z,81.80
2018-03-29T22:28:53.397Z,60.07
2018-03-29T22:31:22.951Z,59.10
2018-03-29T22:33:52.412Z,23.07
2018-03-29T22:36:21.097Z,14.37
2018-03-29T22:38:49.830Z,11.30
2018-03-29T22:41:19.282Z,15.47
2018-03-29T22:43:47.969Z,15.53
2018-03-29T22:46:16.755Z,13.27
2018-03-29T22:48:45.449Z,15.63
2018-03-29T22:51:14.145Z,21.77
2018-03-29T22:53:42.913Z,22.27
2018-03-29T22:56:11.606Z,20.97
2018-03-29T22:58:40.249Z,12.60
2018-03-29T23:01:08.977Z,24.57
2018-03-29T23:03:37.609Z,13.77
2018-03-29T23:06:07.067Z,12.77
2018-03-29T23:08:35.856Z,16.30
2018-03-29T23:11:04.537Z,23.00
2018-03-29T23:13:33.228Z,68.67
2018-03-29T23:16:02.113Z,69.10
2018-03-29T23:18:30.796Z,115.47
2018-03-29T23:20:59.483Z,158.87
2018-03-29T23:23:28.225Z,65.97
2018-03-29T23:25:57.678Z,18.33
2018-03-29T23:28:26.265Z,18.50
2018-03-29T23:30:55.409Z,73.20
2018-03-29T23:33:24.141Z,71.03
2018-03-29T23:35:52.793Z,34.00
2018-03-29T23:38:21.791Z,33.43
2018-03-29T23:40:50.505Z,21.90
2018-03-29T23:43:19.192Z,22.17
2018-03-29T23:45:47.986Z,26.57
2018-03-29T23:48:16.671Z,46.90
2018-03-29T23:50:45.501Z,91.90
2018-03-29T23:53:14.966Z,22.33
2018-03-29T23:55:43.560Z,22.40
2018-03-29T23:58:18.273Z,36.67
